createdAt,value
2022-09-28T00:01:56.795Z,95.90
2022-09-28T00:04:25.250Z,96.61
2022-09-28T00:06:55.051Z,96.27
2022-09-28T00:09:23.439Z,95.76
2022-09-28T00:11:52.572Z,96.11
2022-09-28T00:14:21.359Z,98.15
2022-09-28T00:16:49.801Z,97.54
2022-09-28T00:19:18.398Z,99.55
2022-09-28T00:21:46.778Z,100.00
2022-09-28T00:24:17.194Z,100.00
2022-09-28T00:26:48.627Z,100.00
2022-09-28T00:29:22.091Z,100.00
2022-09-28T00:31:54.284Z,100.00
2022-09-28T00:34:22.733Z,100.00
2022-09-28T00:36:51.095Z,100.00
2022-09-28T00:39:21.478Z,100.00
2022-09-28T00:41:50.464Z,100.00
2022-09-28T00:44:43.656Z,100.00
2022-09-28T00:47:51.587Z,100.00
2022-09-28T00:50:26.148Z,100.00
2022-09-28T00:52:59.072Z,100.00
2022-09-28T00:55:37.237Z,100.00
2022-09-28T00:58:10.337Z,100.00
2022-09-28T01:00:40.665Z,100.00
2022-09-28T01:03:10.081Z,100.00
2022-09-28T01:05:41.002Z,100.00
2022-09-28T01:08:11.320Z,100.00
2022-09-28T01:10:43.613Z,100.00
2022-09-28T01:13:12.894Z,100.00
2022-09-28T01:15:50.742Z,100.00
2022-09-28T01:18:29.496Z,100.00
2022-09-28T01:21:03.028Z,100.00
2022-09-28T01:23:54.328Z,100.00
2022-09-28T01:27:17.831Z,100.00
2022-09-28T01:29:53.788Z,100.00
2022-09-28T01:32:37.757Z,100.00
2022-09-28T01:35:12.833Z,100.00
2022-09-28T01:37:48.031Z,100.00
2022-09-28T01:40:17.960Z,100.00
2022-09-28T01:42:55.530Z,100.00
2022-09-28T01:45:28.368Z,100.00
2022-09-28T01:48:02.408Z,100.00
2022-09-28T01:50:36.683Z,100.00
2022-09-28T01:53:14.710Z,100.00
2022-09-28T01:55:48.839Z,100.00
2022-09-28T01:58:26.480Z,100.00
2022-09-28T02:01:02.058Z,100.00
2022-09-28T02:03:36.647Z,100.00
2022-09-28T02:06:09.923Z,100.00
2022-09-28T02:08:42.452Z,100.00
2022-09-28T02:11:15.978Z,100.00
2022-09-28T02:13:51.055Z,100.00
2022-09-28T02:16:27.487Z,100.00
2022-09-28T02:18:56.605Z,100.00
2022-09-28T02:21:31.971Z,100.00
2022-09-28T02:24:06.885Z,100.00
2022-09-28T02:26:41.506Z,100.00
2022-09-28T02:29:11.366Z,100.00
2022-09-28T02:31:39.860Z,100.00
2022-09-28T02:34:08.694Z,100.00
2022-09-28T02:36:37.713Z,100.00
2022-09-28T02:39:06.746Z,100.00
2022-09-28T02:41:49.657Z,100.00
2022-09-28T02:44:45.866Z,100.00
2022-09-28T02:47:26.886Z,100.00
2022-09-28T02:50:14.232Z,100.00
2022-09-28T02:53:09.881Z,100.00
2022-09-28T02:55:56.895Z,100.00
2022-09-28T02:58:40.685Z,100.00
2022-09-28T03:01:24.556Z,100.00
2022-09-28T03:03:59.891Z,100.00
2022-09-28T03:06:33.977Z,100.00
2022-09-28T03:09:08.237Z,100.00
2022-09-28T03:11:44.841Z,100.00
2022-09-28T03:14:13.870Z,99.81
2022-09-28T03:16:56.291Z,98.38
2022-09-28T03:19:28.889Z,96.18
2022-09-28T03:21:57.303Z,98.72
2022-09-28T03:24:25.896Z,97.99
2022-09-28T03:26:54.613Z,99.12
2022-09-28T03:29:24.378Z,98.19
2022-09-28T03:32:00.615Z,99.12
2022-09-28T03:34:29.025Z,98.40
2022-09-28T03:36:57.719Z,99.66
2022-09-28T03:39:26.256Z,99.33
2022-09-28T03:41:54.634Z,98.52
2022-09-28T03:44:23.462Z,99.27
2022-09-28T03:46:52.072Z,98.97
2022-09-28T03:49:22.118Z,98.69
2022-09-28T03:51:51.331Z,97.61
2022-09-28T03:54:20.047Z,97.84
2022-09-28T03:56:48.419Z,99.17
2022-09-28T03:59:18.467Z,97.61
2022-09-28T04:01:46.994Z,98.23
2022-09-28T04:04:16.240Z,98.37
2022-09-28T04:06:46.210Z,100.00
2022-09-28T04:09:14.725Z,99.65
2022-09-28T04:12:02.722Z,100.00
2022-09-28T04:14:32.292Z,100.00
2022-09-28T04:17:00.709Z,100.00
2022-09-28T04:19:30.374Z,100.00
2022-09-28T04:22:10.034Z,100.00
2022-09-28T04:24:40.201Z,100.00
2022-09-28T04:27:22.400Z,100.00
2022-09-28T04:29:50.781Z,100.00
2022-09-28T04:32:19.886Z,100.00
2022-09-28T04:34:48.318Z,100.00
2022-09-28T04:37:21.093Z,100.00
2022-09-28T04:39:49.584Z,100.00
2022-09-28T04:42:20.547Z,100.00
2022-09-28T04:44:50.959Z,99.74
2022-09-28T04:47:19.301Z,99.05
2022-09-28T04:50:13.733Z,99.02
2022-09-28T04:53:03.539Z,99.27
2022-09-28T04:55:32.646Z,97.82
2022-09-28T04:58:02.447Z,98.17
2022-09-28T05:00:33.791Z,97.81
2022-09-28T05:03:16.434Z,97.49
2022-09-28T05:06:16.209Z,97.30
2022-09-28T05:08:47.934Z,97.63
2022-09-28T05:11:18.367Z,97.66
2022-09-28T05:13:48.530Z,97.58
2022-09-28T05:16:20.385Z,97.22
2022-09-28T05:19:27.440Z,97.21
2022-09-28T05:22:04.420Z,97.27
2022-09-28T05:24:39.547Z,97.60
2022-09-28T05:27:08.164Z,97.51
2022-09-28T05:29:36.578Z,95.91
2022-09-28T05:32:23.669Z,95.34
2022-09-28T05:35:13.013Z,94.13
2022-09-28T05:37:48.201Z,94.72
2022-09-28T05:40:19.011Z,95.01
2022-09-28T05:42:47.431Z,94.50
2022-09-28T05:45:16.758Z,93.82
2022-09-28T05:47:47.223Z,93.96
2022-09-28T05:50:19.795Z,94.07
2022-09-28T05:52:50.275Z,93.62
2022-09-28T05:55:20.233Z,92.54
2022-09-28T05:57:48.662Z,92.46
2022-09-28T06:00:17.094Z,91.72
2022-09-28T06:03:08.663Z,90.85
2022-09-28T06:05:39.390Z,89.66
2022-09-28T06:08:11.642Z,87.97
2022-09-28T06:10:45.764Z,88.33
2022-09-28T06:13:15.138Z,87.90
2022-09-28T06:15:46.375Z,88.40
2022-09-28T06:18:16.273Z,88.32
2022-09-28T06:21:05.961Z,87.82
2022-09-28T06:23:39.951Z,88.03
2022-09-28T06:26:10.435Z,90.15
2022-09-28T06:28:38.977Z,89.68
2022-09-28T06:31:08.088Z,89.18
2022-09-28T06:33:44.334Z,88.58
2022-09-28T06:36:13.418Z,88.71
2022-09-28T06:38:41.947Z,88.07
2022-09-28T06:41:13.086Z,86.46
2022-09-28T06:43:43.368Z,87.34
2022-09-28T06:46:34.063Z,87.04
2022-09-28T06:49:21.811Z,85.33
2022-09-28T06:52:13.152Z,86.52
2022-09-28T06:55:01.192Z,83.39
2022-09-28T06:58:01.677Z,83.80
2022-09-28T07:00:32.970Z,82.66
2022-09-28T07:03:02.883Z,81.57
2022-09-28T07:05:54.051Z,81.15
2022-09-28T07:09:01.861Z,81.22
2022-09-28T07:12:16.559Z,82.16
2022-09-28T07:14:58.333Z,80.95
2022-09-28T07:17:29.608Z,80.35
2022-09-28T07:20:11.637Z,80.04
2022-09-28T07:22:44.541Z,79.67
2022-09-28T07:25:19.364Z,79.89
2022-09-28T07:28:23.134Z,78.37
2022-09-28T07:31:29.911Z,77.12
2022-09-28T07:34:18.217Z,76.09
2022-09-28T07:36:59.681Z,75.38
2022-09-28T07:39:27.996Z,74.70
2022-09-28T07:41:59.792Z,74.56
2022-09-28T07:44:31.002Z,74.86
2022-09-28T07:47:02.108Z,75.76
2022-09-28T07:50:06.365Z,74.50
2022-09-28T07:53:01.172Z,74.58
2022-09-28T07:55:32.715Z,75.38
2022-09-28T07:58:25.656Z,75.33
2022-09-28T08:01:22.755Z,74.06
2022-09-28T08:03:56.410Z,73.89
2022-09-28T08:06:25.503Z,73.20
2022-09-28T08:08:56.358Z,69.72
2022-09-28T08:11:44.793Z,65.87
2022-09-28T08:14:24.747Z,61.55
2022-09-28T08:17:11.956Z,57.94
2022-09-28T08:20:11.107Z,56.77
2022-09-28T08:22:39.972Z,54.99
2022-09-28T08:25:09.655Z,53.32
2022-09-28T08:27:38.342Z,51.89
2022-09-28T08:30:09.110Z,51.62
2022-09-28T08:32:49.446Z,52.42
2022-09-28T08:35:37.571Z,54.01
2022-09-28T08:38:30.997Z,55.05
2022-09-28T08:41:24.616Z,57.61
2022-09-28T08:44:24.878Z,57.15
2022-09-28T08:47:40.288Z,57.46
2022-09-28T08:50:56.441Z,59.35
2022-09-28T08:53:53.555Z,59.96
2022-09-28T08:56:35.538Z,59.47
2022-09-28T08:59:11.053Z,61.00
2022-09-28T09:01:49.901Z,60.68
2022-09-28T09:04:19.443Z,62.55
2022-09-28T09:07:38.214Z,63.29
2022-09-28T09:10:36.569Z,63.40
2022-09-28T09:13:16.216Z,62.68
2022-09-28T09:15:54.115Z,62.16
2022-09-28T09:18:59.235Z,63.67
2022-09-28T09:21:48.755Z,64.50
2022-09-28T09:24:27.897Z,64.82
2022-09-28T09:27:07.626Z,63.15
2022-09-28T09:30:02.051Z,62.95
2022-09-28T09:32:53.430Z,59.32
2022-09-28T09:36:08.642Z,58.26
2022-09-28T09:39:18.241Z,58.94
2022-09-28T09:42:37.547Z,58.22
2022-09-28T09:45:57.131Z,55.93
2022-09-28T09:48:41.396Z,55.28
2022-09-28T09:51:21.057Z,54.99
2022-09-28T09:53:55.491Z,56.22
2022-09-28T09:56:34.637Z,57.61
2022-09-28T09:59:24.071Z,57.70
2022-09-28T10:02:27.392Z,58.65
2022-09-28T10:05:27.824Z,59.63
2022-09-28T10:08:04.782Z,60.33
2022-09-28T10:10:36.955Z,60.96
2022-09-28T10:13:11.324Z,61.37
2022-09-28T10:15:43.462Z,62.34
2022-09-28T10:18:22.429Z,61.78
2022-09-28T10:21:14.873Z,61.89
2022-09-28T10:23:58.857Z,60.47
2022-09-28T10:26:35.423Z,59.80
2022-09-28T10:29:14.898Z,61.56
2022-09-28T10:31:49.179Z,62.08
2022-09-28T10:34:31.456Z,60.68
2022-09-28T10:37:11.881Z,59.72
2022-09-28T10:40:43.559Z,60.32
2022-09-28T10:43:23.726Z,58.68
2022-09-28T10:46:04.860Z,56.65
2022-09-28T10:48:50.246Z,55.84
2022-09-28T10:51:19.231Z,54.53
2022-09-28T10:54:04.366Z,53.08
2022-09-28T10:56:48.683Z,52.43
2022-09-28T10:59:38.546Z,49.89
2022-09-28T11:02:36.704Z,50.58
2022-09-28T11:05:27.949Z,52.82
2022-09-28T11:08:01.608Z,52.52
2022-09-28T11:10:37.569Z,52.94
2022-09-28T11:13:13.708Z,53.61
2022-09-28T11:15:46.457Z,53.31
2022-09-28T11:18:32.331Z,56.26
2022-09-28T11:21:15.741Z,55.53
2022-09-28T11:24:05.863Z,56.32
2022-09-28T11:26:42.665Z,55.62
2022-09-28T11:29:26.834Z,53.76
2022-09-28T11:32:18.721Z,53.84
2022-09-28T11:35:06.313Z,53.47
2022-09-28T11:38:05.238Z,53.85
2022-09-28T11:41:28.765Z,54.23
2022-09-28T11:44:37.723Z,53.20
2022-09-28T11:47:47.010Z,52.60
2022-09-28T11:50:28.063Z,52.02
2022-09-28T11:53:13.197Z,52.88
2022-09-28T11:55:47.986Z,53.69
2022-09-28T11:58:25.200Z,54.00
2022-09-28T12:01:00.685Z,54.26
2022-09-28T12:03:44.864Z,53.23
2022-09-28T12:06:19.203Z,54.15
2022-09-28T12:08:56.928Z,54.33
2022-09-28T12:11:48.189Z,54.49
2022-09-28T12:14:30.761Z,53.06
2022-09-28T12:17:07.908Z,52.85
2022-09-28T12:19:43.837Z,55.39
2022-09-28T12:22:19.586Z,52.50
2022-09-28T12:24:52.903Z,54.51
2022-09-28T12:27:31.071Z,53.09
2022-09-28T12:30:06.352Z,53.59
2022-09-28T12:32:40.485Z,54.06
2022-09-28T12:35:17.243Z,54.27
2022-09-28T12:38:23.049Z,54.36
2022-09-28T12:40:58.609Z,53.89
2022-09-28T12:43:46.432Z,54.85
2022-09-28T12:46:30.139Z,55.32
2022-09-28T12:52:29.630Z,52.85
2022-09-28T12:55:26.895Z,53.13
2022-09-28T12:58:17.205Z,53.21
2022-09-28T13:00:59.800Z,54.91
2022-09-28T13:04:17.067Z,54.47
2022-09-28T13:07:04.516Z,54.91
2022-09-28T13:09:45.383Z,53.80
2022-09-28T13:12:27.330Z,54.88
2022-09-28T13:15:23.649Z,55.46
2022-09-28T13:18:02.973Z,54.54
2022-09-28T13:20:43.394Z,55.51
2022-09-28T13:23:20.921Z,54.08
2022-09-28T13:25:56.685Z,54.76
2022-09-28T13:28:27.775Z,52.43
2022-09-28T13:33:35.896Z,53.30
2022-09-28T13:36:25.557Z,53.75
2022-09-28T13:38:55.291Z,53.24
2022-09-28T13:41:29.754Z,53.84
2022-09-28T13:44:47.146Z,54.48
2022-09-28T13:47:35.101Z,55.71
2022-09-28T13:50:22.259Z,55.37
2022-09-28T13:53:02.283Z,54.90
2022-09-28T13:55:37.533Z,54.70
2022-09-28T13:58:17.686Z,55.50
2022-09-28T14:00:50.576Z,54.16
2022-09-28T14:03:45.232Z,53.73
2022-09-28T14:06:27.018Z,54.13
2022-09-28T14:09:44.395Z,54.40
2022-09-28T14:12:48.247Z,55.06
2022-09-28T14:15:43.801Z,55.08
2022-09-28T14:18:29.831Z,54.63
2022-09-28T14:21:55.569Z,54.42
2022-09-28T14:24:38.036Z,54.14
2022-09-28T14:27:41.773Z,54.66
2022-09-28T14:30:23.595Z,54.97
2022-09-28T14:32:58.208Z,54.63
2022-09-28T14:35:34.442Z,54.40
2022-09-28T14:38:25.721Z,54.77
2022-09-28T14:41:17.680Z,55.04
2022-09-28T14:44:10.022Z,55.87
2022-09-28T14:46:45.468Z,55.41
2022-09-28T14:49:51.259Z,55.92
2022-09-28T14:52:40.698Z,55.75
2022-09-28T14:55:17.222Z,56.28
2022-09-28T14:57:45.910Z,57.25
2022-09-28T15:00:22.533Z,57.36
2022-09-28T15:02:52.896Z,58.13
2022-09-28T15:05:28.675Z,58.78
2022-09-28T15:07:58.617Z,59.33
2022-09-28T15:10:32.405Z,60.84
2022-09-28T15:13:05.599Z,60.15
2022-09-28T15:15:37.603Z,59.85
2022-09-28T15:18:36.643Z,58.67
2022-09-28T15:21:05.344Z,58.37
2022-09-28T15:23:40.591Z,56.82
2022-09-28T15:26:22.999Z,57.33
2022-09-28T15:28:51.534Z,57.51
2022-09-28T15:31:22.765Z,58.31
2022-09-28T15:34:08.644Z,58.32
2022-09-28T15:36:40.487Z,59.09
2022-09-28T15:39:15.607Z,58.68
2022-09-28T15:41:45.233Z,57.89
2022-09-28T15:44:30.201Z,58.37
2022-09-28T15:47:11.342Z,57.79
2022-09-28T15:49:45.327Z,58.74
2022-09-28T15:52:33.963Z,59.53
2022-09-28T15:55:07.219Z,60.55
2022-09-28T15:57:39.819Z,60.24
2022-09-28T16:00:26.953Z,60.58
2022-09-28T16:03:05.467Z,60.50
2022-09-28T16:05:42.988Z,61.66
2022-09-28T16:08:24.715Z,61.58
2022-09-28T16:11:10.950Z,61.78
2022-09-28T16:13:57.284Z,60.86
2022-09-28T16:16:30.830Z,60.88
2022-09-28T16:19:01.710Z,61.59
2022-09-28T16:21:44.209Z,60.95
2022-09-28T16:24:23.157Z,61.62
2022-09-28T16:27:00.035Z,61.82
2022-09-28T16:29:40.029Z,62.04
2022-09-28T16:32:41.790Z,61.28
2022-09-28T16:35:26.012Z,61.04
2022-09-28T16:38:10.692Z,62.94
2022-09-28T16:40:46.303Z,62.98
2022-09-28T16:43:26.964Z,62.73
2022-09-28T16:45:58.042Z,63.15
2022-09-28T16:48:28.461Z,63.55
2022-09-28T16:50:56.874Z,63.29
2022-09-28T16:53:43.975Z,63.66
2022-09-28T16:56:14.042Z,63.67
2022-09-28T16:58:44.215Z,63.23
2022-09-28T17:01:13.756Z,63.23
2022-09-28T17:03:46.658Z,62.76
2022-09-28T17:06:16.883Z,62.92
2022-09-28T17:08:45.663Z,63.30
2022-09-28T17:11:22.794Z,63.76
2022-09-28T17:13:56.895Z,63.45
2022-09-28T17:19:22.519Z,63.66
2022-09-28T17:21:52.249Z,64.15
2022-09-28T17:24:21.453Z,64.47
2022-09-28T17:26:52.569Z,64.78
2022-09-28T17:29:22.802Z,65.88
2022-09-28T17:31:51.479Z,65.71
2022-09-28T17:34:20.769Z,65.45
2022-09-28T17:36:49.628Z,65.58
2022-09-28T17:39:20.263Z,66.28
2022-09-28T17:41:48.823Z,66.19
2022-09-28T17:44:17.403Z,66.81
2022-09-28T17:46:49.585Z,66.75
2022-09-28T17:49:18.758Z,66.53
2022-09-28T17:51:47.288Z,67.21
2022-09-28T17:54:19.897Z,67.92
2022-09-28T17:56:48.812Z,69.06
2022-09-28T17:59:19.732Z,70.00
2022-09-28T18:01:49.531Z,70.67
2022-09-28T18:04:46.904Z,70.94
2022-09-28T18:07:06.923Z,71.75
2022-09-28T18:09:35.243Z,72.01
2022-09-28T18:12:06.601Z,71.94
2022-09-28T18:14:35.803Z,72.16
2022-09-28T18:17:05.752Z,72.04
2022-09-28T18:19:34.165Z,71.81
2022-09-28T18:22:02.710Z,71.95
2022-09-28T18:24:32.517Z,72.42
2022-09-28T18:27:01.159Z,72.35
2022-09-28T18:29:33.114Z,72.81
2022-09-28T18:32:03.123Z,73.30
2022-09-28T18:34:36.444Z,74.02
2022-09-28T18:37:05.555Z,73.94
2022-09-28T18:39:33.931Z,73.58
2022-09-28T18:42:02.440Z,74.10
2022-09-28T18:44:30.929Z,74.29
2022-09-28T18:47:02.333Z,74.80
2022-09-28T18:49:33.662Z,74.11
2022-09-28T18:52:02.883Z,74.32
2022-09-28T18:54:31.225Z,74.44
2022-09-28T18:56:59.574Z,74.21
2022-09-28T18:59:28.373Z,74.10
2022-09-28T19:01:56.973Z,73.62
2022-09-28T19:04:25.631Z,74.16
2022-09-28T19:06:55.446Z,73.43
2022-09-28T19:09:26.491Z,73.78
2022-09-28T19:11:55.065Z,74.09
2022-09-28T19:14:23.386Z,72.66
2022-09-28T19:16:51.779Z,73.57
2022-09-28T19:19:21.722Z,74.29
2022-09-28T19:21:50.266Z,74.17
2022-09-28T19:24:20.957Z,74.58
2022-09-28T19:26:50.817Z,74.38
2022-09-28T19:29:19.295Z,74.33
2022-09-28T19:31:47.984Z,74.46
2022-09-28T19:34:16.812Z,74.72
2022-09-28T19:36:45.561Z,74.41
2022-09-28T19:39:15.986Z,74.88
2022-09-28T19:41:49.578Z,74.71
2022-09-28T19:44:25.141Z,74.77
2022-09-28T19:46:55.522Z,75.58
2022-09-28T19:49:25.572Z,75.90
2022-09-28T19:52:12.171Z,76.61
2022-09-28T19:54:43.966Z,76.88
2022-09-28T19:57:16.036Z,77.66
2022-09-28T19:59:47.489Z,77.75
2022-09-28T20:02:18.086Z,77.45
2022-09-28T20:04:46.461Z,77.10
2022-09-28T20:07:15.396Z,78.07
2022-09-28T20:09:43.890Z,77.75
2022-09-28T20:12:13.697Z,77.13
2022-09-28T20:14:42.243Z,75.72
2022-09-28T20:17:11.583Z,77.07
2022-09-28T20:19:40.027Z,77.67
2022-09-28T20:22:08.571Z,77.90
2022-09-28T20:24:37.182Z,78.31
2022-09-28T20:27:05.889Z,78.90
2022-09-28T20:29:35.889Z,79.43
2022-09-28T20:32:04.882Z,79.01
2022-09-28T20:34:34.475Z,79.81
2022-09-28T20:37:03.086Z,79.57
2022-09-28T20:39:31.670Z,79.80
2022-09-28T20:42:00.210Z,79.49
2022-09-28T20:44:28.715Z,79.55
2022-09-28T20:46:58.823Z,80.19
2022-09-28T20:49:28.161Z,79.46
2022-09-28T20:51:56.539Z,78.66
2022-09-28T20:54:25.563Z,78.61
2022-09-28T20:56:53.941Z,78.70
2022-09-28T20:59:25.958Z,77.69
2022-09-28T21:01:54.440Z,78.41
2022-09-28T21:04:24.275Z,78.89
2022-09-28T21:06:53.233Z,79.30
2022-09-28T21:09:21.813Z,78.87
2022-09-28T21:11:50.339Z,78.52
2022-09-28T21:14:19.038Z,78.43
2022-09-28T21:16:47.774Z,78.26
2022-09-28T21:19:16.138Z,77.86
2022-09-28T21:21:45.968Z,78.12
2022-09-28T21:24:14.376Z,77.26
2022-09-28T21:26:42.831Z,76.29
2022-09-28T21:29:14.993Z,76.16
2022-09-28T21:31:46.829Z,75.67
2022-09-28T21:34:19.307Z,75.63
2022-09-28T21:36:51.341Z,75.90
2022-09-28T21:39:20.476Z,75.38
2022-09-28T21:41:49.103Z,75.96
2022-09-28T21:44:17.864Z,76.50
2022-09-28T21:46:46.337Z,76.39
2022-09-28T21:49:15.020Z,76.84
2022-09-28T21:51:43.693Z,77.29
2022-09-28T21:54:15.064Z,78.43
2022-09-28T21:56:43.389Z,78.19
2022-09-28T21:59:11.726Z,78.56
2022-09-28T22:01:42.750Z,77.93
2022-09-28T22:04:12.048Z,77.82
2022-09-28T22:06:40.836Z,78.38
2022-09-28T22:09:09.372Z,78.40
2022-09-28T22:11:39.043Z,78.77
2022-09-28T22:14:07.361Z,79.28
2022-09-28T22:16:35.688Z,79.62
2022-09-28T22:19:04.192Z,79.57
2022-09-28T22:21:34.923Z,80.17
2022-09-28T22:24:06.528Z,80.17
2022-09-28T22:26:39.452Z,80.62
2022-09-28T22:29:10.204Z,80.44
2022-09-28T22:31:40.700Z,80.97
2022-09-28T22:34:10.211Z,81.82
2022-09-28T22:36:38.751Z,82.09
2022-09-28T22:39:07.218Z,82.89
2022-09-28T22:41:35.768Z,83.10
2022-09-28T22:44:05.706Z,82.94
2022-09-28T22:46:34.118Z,81.67
2022-09-28T22:49:02.884Z,81.99
2022-09-28T22:51:31.921Z,82.47
2022-09-28T22:54:01.278Z,82.64
2022-09-28T22:56:30.305Z,82.79
2022-09-28T22:58:59.146Z,82.89
2022-09-28T23:01:31.155Z,83.54
2022-09-28T23:04:00.922Z,83.35
2022-09-28T23:06:30.788Z,83.43
2022-09-28T23:08:59.275Z,83.21
2022-09-28T23:11:28.501Z,83.28
2022-09-28T23:13:58.843Z,83.44
2022-09-28T23:16:30.146Z,83.42
2022-09-28T23:18:58.943Z,83.46
2022-09-28T23:21:29.232Z,83.53
2022-09-28T23:24:01.012Z,83.49
2022-09-28T23:26:31.636Z,84.17
2022-09-28T23:29:00.940Z,84.25
2022-09-28T23:31:32.521Z,84.74
2022-09-28T23:34:02.827Z,84.98
2022-09-28T23:36:32.047Z,85.92
2022-09-28T23:39:00.589Z,86.18
2022-09-28T23:41:29.147Z,86.93
2022-09-28T23:43:57.531Z,87.10
2022-09-28T23:46:26.040Z,87.56
2022-09-28T23:48:55.809Z,87.66
2022-09-28T23:51:24.211Z,88.57
2022-09-28T23:53:52.575Z,88.70
2022-09-28T23:56:21.287Z,88.58
2022-09-28T23:58:49.638Z,88.67
